Observations for ROME FIUMICINO, Italy (LIRF)

LIRF 260450Z 08003KT CAVOK 20/17 Q1016 NOSIG
LIRF 260420Z 08003KT CAVOK 20/17 Q1016 NOSIG
LIRF 260350Z 06006KT CAVOK 20/17 Q1016 NOSIG
LIRF 260320Z 04004KT CAVOK 20/17 Q1016 NOSIG
LIRF 260250Z 03003KT CAVOK 20/17 Q1015 NOSIG
LIRF 260220Z 02004KT CAVOK 21/17 Q1016 NOSIG
LIRF 260150Z 04004KT CAVOK 21/17 Q1016 NOSIG
LIRF 260120Z 07002KT CAVOK 21/17 Q1016 NOSIG
LIRF 260050Z 06003KT CAVOK 22/17 Q1016 NOSIG
LIRF 260020Z 03004KT CAVOK 22/17 Q1016 NOSIG
LIRF 252350Z 01005KT CAVOK 22/17 Q1016 NOSIG
LIRF 252320Z 01005KT CAVOK 22/17 Q1016 NOSIG
LIRF 252250Z 05004KT CAVOK 22/18 Q1016 NOSIG
LIRF 252220Z 04005KT CAVOK 22/18 Q1016 NOSIG
LIRF 252150Z 36003KT CAVOK 23/18 Q1016 NOSIG
LIRF 252120Z 35006KT CAVOK 22/19 Q1016 NOSIG
LIRF 252050Z 35005KT CAVOK 23/19 Q1016 NOSIG
LIRF 252020Z 30004KT CAVOK 24/22 Q1016 NOSIG
LIRF 251950Z VRB02KT CAVOK 25/20 Q1016 NOSIG
LIRF 251920Z 33004KT CAVOK 24/22 Q1016 NOSIG
LIRF 251850Z 31004KT CAVOK 25/22 Q1016 NOSIG
LIRF 251820Z 29005KT CAVOK 25/23 Q1015 NOSIG
LIRF 251720Z 31006KT CAVOK 26/22 Q1015 NOSIG
LIRF 251650Z 30007KT CAVOK 27/22 Q1015 NOSIG
LIRF 251620Z 28006KT CAVOK 28/21 Q1015 NOSIG
LIRF 251550Z 28008KT CAVOK 28/20 Q1015 NOSIG
LIRF 251520Z 27009KT 240V300 CAVOK 28/22 Q1015 NOSIG
LIRF 251450Z 26008KT CAVOK 29/21 Q1015 NOSIG
LIRF 251420Z 25008KT 210V280 CAVOK 29/21 Q1015 NOSIG
LIRF 251350Z 25009KT CAVOK 29/21 Q1015 TEMPO 4000 TSRA  
LIRF 251320Z 26009KT CAVOK 29/21 Q1015 TEMPO 4000 TSRA  
LIRF 251250Z 26009KT 230V290 9999 FEW025 29/20 Q1015 NOSIG  
LIRF 251220Z 26010KT 9999 FEW025 29/20 Q1015 NOSIG  
LIRF 251150Z 26009KT 240V300 9999 FEW025 29/20 Q1015 NOSIG  
LIRF 251120Z 26008KT 230V290 9999 FEW025 29/19 Q1016 NOSIG  
LIRF 251050Z 24009KT CAVOK 29/20 Q1016 NOSIG
LIRF 251020Z 26007KT 230V290 CAVOK 29/19 Q1016 NOSIG
LIRF 250950Z 23005KT 150V290 CAVOK 29/19 Q1016 NOSIG
LIRF 250920Z VRB02KT CAVOK 30/18 Q1016 NOSIG
LIRF 250850Z VRB03KT CAVOK 29/18 Q1016 NOSIG
LIRF 250820Z VRB03KT CAVOK 28/17 Q1016 NOSIG
LIRF 250750Z 10004KT 050V140 CAVOK 27/17 Q1016 NOSIG
LIRF 250720Z 07004KT 030V120 CAVOK 26/17 Q1016 NOSIG
LIRF 250650Z 06007KT CAVOK 25/17 Q1016 NOSIG
LIRF 250620Z 09007KT CAVOK 24/17 Q1016 NOSIG
LIRF 250550Z 08008KT CAVOK 23/17 Q1016 NOSIG
LIRF 250520Z 09004KT CAVOK 21/16 Q1016 NOSIG
LIRF 250450Z 08003KT CAVOK 21/16 Q1016 NOSIG
LIRF 250420Z 06004KT CAVOK 20/16 Q1016 NOSIG